sensor_id;sensor_type;location;lat;lon;timestamp;temperature;humidity
14600;DHT22;7386;45.586;12.854;2022-10-28T00:01:13;15.10;99.90
14600;DHT22;7386;45.586;12.854;2022-10-28T00:03:43;15.10;99.90
14600;DHT22;7386;45.586;12.854;2022-10-28T00:06:13;15.10;99.90
14600;DHT22;7386;45.586;12.854;2022-10-28T00:08:42;15.10;99.90
14600;DHT22;7386;45.586;12.854;2022-10-28T00:11:12;15.10;99.90
14600;DHT22;7386;45.586;12.854;2022-10-28T00:13:41;15.10;99.90
14600;DHT22;7386;45.586;12.854;2022-10-28T00:16:12;15.10;99.90
14600;DHT22;7386;45.586;12.854;2022-10-28T00:18:41;15.10;99.90
14600;DHT22;7386;45.586;12.854;2022-10-28T00:21:11;15.00;99.90
14600;DHT22;7386;45.586;12.854;2022-10-28T00:23:40;15.00;99.90
14600;DHT22;7386;45.586;12.854;2022-10-28T00:26:09;15.10;99.90
14600;DHT22;7386;45.586;12.854;2022-10-28T00:28:43;15.00;99.90
14600;DHT22;7386;45.586;12.854;2022-10-28T00:31:14;15.00;99.90
14600;DHT22;7386;45.586;12.854;2022-10-28T00:33:42;15.00;99.90
14600;DHT22;7386;45.586;12.854;2022-10-28T00:36:13;15.00;99.90
14600;DHT22;7386;45.586;12.854;2022-10-28T00:38:42;15.00;99.90
14600;DHT22;7386;45.586;12.854;2022-10-28T00:41:13;15.00;99.90
14600;DHT22;7386;45.586;12.854;2022-10-28T00:43:43;14.90;99.90
14600;DHT22;7386;45.586;12.854;2022-10-28T00:46:25;14.90;99.90
14600;DHT22;7386;45.586;12.854;2022-10-28T00:48:59;14.90;99.90
14600;DHT22;7386;45.586;12.854;2022-10-28T00:51:30;14.80;99.90
14600;DHT22;7386;45.586;12.854;2022-10-28T00:54:00;14.80;99.90
14600;DHT22;7386;45.586;12.854;2022-10-28T00:56:31;14.90;99.90
14600;DHT22;7386;45.586;12.854;2022-10-28T00:59:02;14.80;99.90
14600;DHT22;7386;45.586;12.854;2022-10-28T01:01:32;14.90;99.90
14600;DHT22;7386;45.586;12.854;2022-10-28T01:04:01;14.80;99.90
14600;DHT22;7386;45.586;12.854;2022-10-28T01:06:29;14.80;99.90
14600;DHT22;7386;45.586;12.854;2022-10-28T01:08:57;14.70;99.90
14600;DHT22;7386;45.586;12.854;2022-10-28T01:11:44;14.70;99.90
14600;DHT22;7386;45.586;12.854;2022-10-28T01:14:27;14.70;99.90
14600;DHT22;7386;45.586;12.854;2022-10-28T01:20:42;14.70;99.90
14600;DHT22;7386;45.586;12.854;2022-10-28T01:23:20;14.70;99.90
14600;DHT22;7386;45.586;12.854;2022-10-28T01:26:07;14.70;99.90
14600;DHT22;7386;45.586;12.854;2022-10-28T01:31:56;14.60;99.90
14600;DHT22;7386;45.586;12.854;2022-10-28T01:34:29;14.60;99.90
14600;DHT22;7386;45.586;12.854;2022-10-28T01:37:05;14.60;99.90
14600;DHT22;7386;45.586;12.854;2022-10-28T01:39:43;14.50;99.90
14600;DHT22;7386;45.586;12.854;2022-10-28T01:42:23;14.50;99.90
14600;DHT22;7386;45.586;12.854;2022-10-28T01:45:00;14.50;99.90
14600;DHT22;7386;45.586;12.854;2022-10-28T01:47:35;14.50;99.90
14600;DHT22;7386;45.586;12.854;2022-10-28T01:50:07;14.50;99.90
14600;DHT22;7386;45.586;12.854;2022-10-28T01:52:38;14.40;99.90
14600;DHT22;7386;45.586;12.854;2022-10-28T01:55:11;14.40;99.90
14600;DHT22;7386;45.586;12.854;2022-10-28T01:57:41;14.40;99.90
14600;DHT22;7386;45.586;12.854;2022-10-28T02:00:11;14.40;99.90
14600;DHT22;7386;45.586;12.854;2022-10-28T02:02:41;14.30;99.90
14600;DHT22;7386;45.586;12.854;2022-10-28T02:05:38;14.30;99.90
14600;DHT22;7386;45.586;12.854;2022-10-28T02:08:48;14.20;99.90
14600;DHT22;7386;45.586;12.854;2022-10-28T02:11:42;14.20;99.90
14600;DHT22;7386;45.586;12.854;2022-10-28T02:14:29;14.20;99.90
14600;DHT22;7386;45.586;12.854;2022-10-28T02:17:04;14.10;99.90
14600;DHT22;7386;45.586;12.854;2022-10-28T02:19:45;14.10;99.90
14600;DHT22;7386;45.586;12.854;2022-10-28T02:22:19;14.00;99.90
14600;DHT22;7386;45.586;12.854;2022-10-28T02:24:54;14.00;99.90
14600;DHT22;7386;45.586;12.854;2022-10-28T02:27:32;14.00;99.90
14600;DHT22;7386;45.586;12.854;2022-10-28T02:30:05;14.00;99.90
14600;DHT22;7386;45.586;12.854;2022-10-28T02:32:37;14.00;99.90
14600;DHT22;7386;45.586;12.854;2022-10-28T02:35:14;13.90;99.90
14600;DHT22;7386;45.586;12.854;2022-10-28T02:37:44;14.10;99.90
14600;DHT22;7386;45.586;12.854;2022-10-28T02:40:17;13.90;99.90
14600;DHT22;7386;45.586;12.854;2022-10-28T02:42:48;13.90;99.90
14600;DHT22;7386;45.586;12.854;2022-10-28T02:45:20;13.90;99.90
14600;DHT22;7386;45.586;12.854;2022-10-28T02:47:52;13.90;99.90
14600;DHT22;7386;45.586;12.854;2022-10-28T02:50:26;13.90;99.90
14600;DHT22;7386;45.586;12.854;2022-10-28T02:52:58;13.90;99.90
14600;DHT22;7386;45.586;12.854;2022-10-28T02:55:33;13.90;99.90
14600;DHT22;7386;45.586;12.854;2022-10-28T02:58:02;14.00;99.90
14600;DHT22;7386;45.586;12.854;2022-10-28T03:00:32;13.90;99.90
14600;DHT22;7386;45.586;12.854;2022-10-28T03:03:00;13.90;99.90
14600;DHT22;7386;45.586;12.854;2022-10-28T03:05:29;13.90;99.90
14600;DHT22;7386;45.586;12.854;2022-10-28T03:07:58;13.90;99.90
14600;DHT22;7386;45.586;12.854;2022-10-28T03:10:26;13.90;99.90
14600;DHT22;7386;45.586;12.854;2022-10-28T03:12:54;13.90;99.90
14600;DHT22;7386;45.586;12.854;2022-10-28T03:15:22;13.90;99.90
14600;DHT22;7386;45.586;12.854;2022-10-28T03:17:51;13.90;99.90
14600;DHT22;7386;45.586;12.854;2022-10-28T03:20:19;13.90;99.90
14600;DHT22;7386;45.586;12.854;2022-10-28T03:22:49;13.90;99.90
14600;DHT22;7386;45.586;12.854;2022-10-28T03:25:18;13.90;99.90
14600;DHT22;7386;45.586;12.854;2022-10-28T03:27:46;13.90;99.90
14600;DHT22;7386;45.586;12.854;2022-10-28T03:30:15;13.90;99.90
14600;DHT22;7386;45.586;12.854;2022-10-28T03:32:44;13.90;99.90
14600;DHT22;7386;45.586;12.854;2022-10-28T03:35:12;13.90;99.90
14600;DHT22;7386;45.586;12.854;2022-10-28T03:40:12;13.80;99.90
14600;DHT22;7386;45.586;12.854;2022-10-28T03:42:40;13.80;99.90
14600;DHT22;7386;45.586;12.854;2022-10-28T03:45:09;13.80;99.90
14600;DHT22;7386;45.586;12.854;2022-10-28T03:47:38;13.80;99.90
14600;DHT22;7386;45.586;12.854;2022-10-28T03:50:07;13.70;99.90
14600;DHT22;7386;45.586;12.854;2022-10-28T03:52:36;13.70;99.90
14600;DHT22;7386;45.586;12.854;2022-10-28T03:55:05;13.70;99.90
14600;DHT22;7386;45.586;12.854;2022-10-28T03:57:34;13.60;99.90
14600;DHT22;7386;45.586;12.854;2022-10-28T04:00:03;13.60;99.90
14600;DHT22;7386;45.586;12.854;2022-10-28T04:02:32;13.60;99.90
14600;DHT22;7386;45.586;12.854;2022-10-28T04:05:00;13.60;99.90
14600;DHT22;7386;45.586;12.854;2022-10-28T04:07:28;13.60;99.90
14600;DHT22;7386;45.586;12.854;2022-10-28T04:09:56;13.60;99.90
14600;DHT22;7386;45.586;12.854;2022-10-28T04:12:25;13.70;99.90
14600;DHT22;7386;45.586;12.854;2022-10-28T04:14:54;13.70;99.90
14600;DHT22;7386;45.586;12.854;2022-10-28T04:17:23;13.80;99.90
14600;DHT22;7386;45.586;12.854;2022-10-28T04:19:51;13.80;99.90
14600;DHT22;7386;45.586;12.854;2022-10-28T04:22:19;13.80;99.90
14600;DHT22;7386;45.586;12.854;2022-10-28T04:24:47;13.80;99.90
14600;DHT22;7386;45.586;12.854;2022-10-28T04:27:15;13.80;99.90
14600;DHT22;7386;45.586;12.854;2022-10-28T04:29:44;13.80;99.90
14600;DHT22;7386;45.586;12.854;2022-10-28T04:32:13;13.80;99.90
14600;DHT22;7386;45.586;12.854;2022-10-28T04:34:42;13.80;99.90
14600;DHT22;7386;45.586;12.854;2022-10-28T04:37:10;13.70;99.90
14600;DHT22;7386;45.586;12.854;2022-10-28T04:39:44;13.70;99.90
14600;DHT22;7386;45.586;12.854;2022-10-28T04:42:12;13.60;99.90
14600;DHT22;7386;45.586;12.854;2022-10-28T04:44:40;13.60;99.90
14600;DHT22;7386;45.586;12.854;2022-10-28T04:47:08;13.60;99.90
14600;DHT22;7386;45.586;12.854;2022-10-28T04:49:38;13.60;99.90
14600;DHT22;7386;45.586;12.854;2022-10-28T04:52:06;13.70;99.90
14600;DHT22;7386;45.586;12.854;2022-10-28T04:54:39;13.60;99.90
14600;DHT22;7386;45.586;12.854;2022-10-28T04:57:07;13.50;99.90
14600;DHT22;7386;45.586;12.854;2022-10-28T04:59:36;13.50;99.90
14600;DHT22;7386;45.586;12.854;2022-10-28T05:02:04;13.50;99.90
14600;DHT22;7386;45.586;12.854;2022-10-28T05:04:32;13.50;99.90
14600;DHT22;7386;45.586;12.854;2022-10-28T05:07:02;13.50;99.90
14600;DHT22;7386;45.586;12.854;2022-10-28T05:09:30;13.50;99.90
14600;DHT22;7386;45.586;12.854;2022-10-28T05:11:58;13.50;99.90
14600;DHT22;7386;45.586;12.854;2022-10-28T05:14:26;13.40;99.90
14600;DHT22;7386;45.586;12.854;2022-10-28T05:16:54;13.40;99.90
14600;DHT22;7386;45.586;12.854;2022-10-28T05:19:23;13.30;99.90
14600;DHT22;7386;45.586;12.854;2022-10-28T05:21:51;13.30;99.90
14600;DHT22;7386;45.586;12.854;2022-10-28T05:24:20;13.30;99.90
14600;DHT22;7386;45.586;12.854;2022-10-28T05:26:49;13.30;99.90
14600;DHT22;7386;45.586;12.854;2022-10-28T05:29:17;13.20;99.90
14600;DHT22;7386;45.586;12.854;2022-10-28T05:31:45;13.20;99.90
14600;DHT22;7386;45.586;12.854;2022-10-28T05:34:13;13.20;99.90
14600;DHT22;7386;45.586;12.854;2022-10-28T05:36:41;13.20;99.90
14600;DHT22;7386;45.586;12.854;2022-10-28T05:39:10;13.20;99.90
14600;DHT22;7386;45.586;12.854;2022-10-28T05:41:41;13.20;99.90
14600;DHT22;7386;45.586;12.854;2022-10-28T05:44:09;13.20;99.90
14600;DHT22;7386;45.586;12.854;2022-10-28T05:46:37;13.30;99.90
14600;DHT22;7386;45.586;12.854;2022-10-28T05:49:05;13.30;99.90
14600;DHT22;7386;45.586;12.854;2022-10-28T05:51:34;13.30;99.90
14600;DHT22;7386;45.586;12.854;2022-10-28T05:54:02;13.30;99.90
14600;DHT22;7386;45.586;12.854;2022-10-28T05:56:30;13.40;99.90
14600;DHT22;7386;45.586;12.854;2022-10-28T05:59:00;13.40;99.90
14600;DHT22;7386;45.586;12.854;2022-10-28T06:01:28;13.40;99.90
14600;DHT22;7386;45.586;12.854;2022-10-28T06:03:56;13.50;99.90
14600;DHT22;7386;45.586;12.854;2022-10-28T06:06:27;13.50;99.90
14600;DHT22;7386;45.586;12.854;2022-10-28T06:08:55;13.50;99.90
14600;DHT22;7386;45.586;12.854;2022-10-28T06:11:23;13.50;99.90
14600;DHT22;7386;45.586;12.854;2022-10-28T06:13:51;13.40;99.90
14600;DHT22;7386;45.586;12.854;2022-10-28T06:16:21;13.40;99.90
14600;DHT22;7386;45.586;12.854;2022-10-28T06:18:49;13.40;99.90
14600;DHT22;7386;45.586;12.854;2022-10-28T06:21:17;13.40;99.90
14600;DHT22;7386;45.586;12.854;2022-10-28T06:23:46;13.40;99.90
14600;DHT22;7386;45.586;12.854;2022-10-28T06:26:14;13.40;99.90
14600;DHT22;7386;45.586;12.854;2022-10-28T06:28:42;13.40;99.90
14600;DHT22;7386;45.586;12.854;2022-10-28T06:31:10;13.40;99.90
14600;DHT22;7386;45.586;12.854;2022-10-28T06:33:40;13.40;99.90
14600;DHT22;7386;45.586;12.854;2022-10-28T06:36:08;13.40;99.90
14600;DHT22;7386;45.586;12.854;2022-10-28T06:38:37;13.40;99.90
14600;DHT22;7386;45.586;12.854;2022-10-28T06:41:05;13.40;99.90
14600;DHT22;7386;45.586;12.854;2022-10-28T06:43:33;13.50;99.90
14600;DHT22;7386;45.586;12.854;2022-10-28T06:46:02;13.50;99.90
14600;DHT22;7386;45.586;12.854;2022-10-28T06:48:31;13.50;99.90
14600;DHT22;7386;45.586;12.854;2022-10-28T06:51:01;13.50;99.90
14600;DHT22;7386;45.586;12.854;2022-10-28T06:53:29;13.60;99.90
14600;DHT22;7386;45.586;12.854;2022-10-28T06:55:57;13.60;99.90
14600;DHT22;7386;45.586;12.854;2022-10-28T06:58:26;13.70;99.90
14600;DHT22;7386;45.586;12.854;2022-10-28T07:00:54;13.70;99.90
14600;DHT22;7386;45.586;12.854;2022-10-28T07:03:22;13.80;99.90
14600;DHT22;7386;45.586;12.854;2022-10-28T07:05:51;13.90;99.90
14600;DHT22;7386;45.586;12.854;2022-10-28T07:08:20;14.00;99.90
14600;DHT22;7386;45.586;12.854;2022-10-28T07:10:55;14.10;99.90
14600;DHT22;7386;45.586;12.854;2022-10-28T07:13:24;14.10;99.90
14600;DHT22;7386;45.586;12.854;2022-10-28T07:15:53;14.20;99.90
14600;DHT22;7386;45.586;12.854;2022-10-28T07:18:22;14.30;99.90
14600;DHT22;7386;45.586;12.854;2022-10-28T07:20:50;14.30;99.90
14600;DHT22;7386;45.586;12.854;2022-10-28T07:23:20;14.40;99.90
14600;DHT22;7386;45.586;12.854;2022-10-28T07:25:52;14.50;99.90
14600;DHT22;7386;45.586;12.854;2022-10-28T07:28:21;14.50;99.90
14600;DHT22;7386;45.586;12.854;2022-10-28T07:30:49;14.60;99.90
14600;DHT22;7386;45.586;12.854;2022-10-28T07:33:18;14.70;99.90
14600;DHT22;7386;45.586;12.854;2022-10-28T07:35:46;14.70;99.90
14600;DHT22;7386;45.586;12.854;2022-10-28T07:38:14;14.80;99.90
14600;DHT22;7386;45.586;12.854;2022-10-28T07:40:44;14.90;99.90
14600;DHT22;7386;45.586;12.854;2022-10-28T07:43:12;14.90;99.90
14600;DHT22;7386;45.586;12.854;2022-10-28T07:45:40;15.00;99.90
14600;DHT22;7386;45.586;12.854;2022-10-28T07:48:09;15.00;99.90
14600;DHT22;7386;45.586;12.854;2022-10-28T07:50:39;15.00;99.90
14600;DHT22;7386;45.586;12.854;2022-10-28T07:53:07;15.10;99.90
14600;DHT22;7386;45.586;12.854;2022-10-28T07:55:35;15.10;99.90
14600;DHT22;7386;45.586;12.854;2022-10-28T07:58:05;15.20;99.90
14600;DHT22;7386;45.586;12.854;2022-10-28T08:00:33;15.20;99.90
14600;DHT22;7386;45.586;12.854;2022-10-28T08:03:02;15.20;99.90
14600;DHT22;7386;45.586;12.854;2022-10-28T08:05:31;15.30;99.90
14600;DHT22;7386;45.586;12.854;2022-10-28T08:07:59;15.30;99.90
14600;DHT22;7386;45.586;12.854;2022-10-28T08:10:27;15.40;99.90
14600;DHT22;7386;45.586;12.854;2022-10-28T08:12:55;15.40;99.90
14600;DHT22;7386;45.586;12.854;2022-10-28T08:15:26;15.50;99.90
14600;DHT22;7386;45.586;12.854;2022-10-28T08:17:55;15.50;99.90
14600;DHT22;7386;45.586;12.854;2022-10-28T08:20:24;15.50;99.90
14600;DHT22;7386;45.586;12.854;2022-10-28T08:22:53;15.60;99.90
14600;DHT22;7386;45.586;12.854;2022-10-28T08:25:22;15.70;99.90
14600;DHT22;7386;45.586;12.854;2022-10-28T08:27:50;15.70;99.90
14600;DHT22;7386;45.586;12.854;2022-10-28T08:30:18;15.70;99.90
14600;DHT22;7386;45.586;12.854;2022-10-28T08:32:48;15.80;99.90
14600;DHT22;7386;45.586;12.854;2022-10-28T08:35:17;15.90;99.90
14600;DHT22;7386;45.586;12.854;2022-10-28T08:37:50;15.90;99.90
14600;DHT22;7386;45.586;12.854;2022-10-28T08:40:19;16.00;99.90
14600;DHT22;7386;45.586;12.854;2022-10-28T08:42:55;16.00;99.90
14600;DHT22;7386;45.586;12.854;2022-10-28T08:45:39;16.10;99.90
14600;DHT22;7386;45.586;12.854;2022-10-28T08:48:19;16.20;99.90
14600;DHT22;7386;45.586;12.854;2022-10-28T08:50:52;16.30;99.90
14600;DHT22;7386;45.586;12.854;2022-10-28T08:53:24;16.30;99.90
14600;DHT22;7386;45.586;12.854;2022-10-28T08:56:00;16.40;99.90
14600;DHT22;7386;45.586;12.854;2022-10-28T08:58:33;16.40;99.90
14600;DHT22;7386;45.586;12.854;2022-10-28T09:01:12;16.50;99.90
14600;DHT22;7386;45.586;12.854;2022-10-28T09:03:47;16.60;99.90
14600;DHT22;7386;45.586;12.854;2022-10-28T09:06:17;16.70;99.90
14600;DHT22;7386;45.586;12.854;2022-10-28T09:08:47;16.70;99.90
14600;DHT22;7386;45.586;12.854;2022-10-28T09:14:38;16.80;99.90
14600;DHT22;7386;45.586;12.854;2022-10-28T09:17:15;16.90;99.90
14600;DHT22;7386;45.586;12.854;2022-10-28T09:19:47;17.00;99.90
14600;DHT22;7386;45.586;12.854;2022-10-28T09:22:21;17.10;99.90
14600;DHT22;7386;45.586;12.854;2022-10-28T09:24:53;17.10;99.90
14600;DHT22;7386;45.586;12.854;2022-10-28T09:27:36;17.20;99.90
14600;DHT22;7386;45.586;12.854;2022-10-28T09:30:19;17.40;99.90
14600;DHT22;7386;45.586;12.854;2022-10-28T09:32:56;17.30;99.90
14600;DHT22;7386;45.586;12.854;2022-10-28T09:35:31;17.40;99.90
14600;DHT22;7386;45.586;12.854;2022-10-28T09:38:06;17.50;99.90
14600;DHT22;7386;45.586;12.854;2022-10-28T09:40:41;17.50;99.90
14600;DHT22;7386;45.586;12.854;2022-10-28T09:43:16;17.60;99.90
14600;DHT22;7386;45.586;12.854;2022-10-28T09:45:51;17.70;99.90
14600;DHT22;7386;45.586;12.854;2022-10-28T09:48:23;17.70;99.90
14600;DHT22;7386;45.586;12.854;2022-10-28T09:50:56;17.70;99.90
14600;DHT22;7386;45.586;12.854;2022-10-28T09:53:31;17.80;99.90
14600;DHT22;7386;45.586;12.854;2022-10-28T09:56:03;17.90;99.90
14600;DHT22;7386;45.586;12.854;2022-10-28T09:58:33;18.00;99.90
14600;DHT22;7386;45.586;12.854;2022-10-28T10:01:02;18.00;99.90
14600;DHT22;7386;45.586;12.854;2022-10-28T10:03:32;18.10;99.90
14600;DHT22;7386;45.586;12.854;2022-10-28T10:06:10;18.10;99.90
14600;DHT22;7386;45.586;12.854;2022-10-28T10:08:39;18.20;99.90
14600;DHT22;7386;45.586;12.854;2022-10-28T10:11:23;18.30;99.90
14600;DHT22;7386;45.586;12.854;2022-10-28T10:44:42;18.50;99.90
14600;DHT22;7386;45.586;12.854;2022-10-28T10:47:18;19.00;99.90
14600;DHT22;7386;45.586;12.854;2022-10-28T10:49:48;19.00;99.90
14600;DHT22;7386;45.586;12.854;2022-10-28T15:52:50;18.80;99.90
14600;DHT22;7386;45.586;12.854;2022-10-28T15:55:26;18.70;99.90
14600;DHT22;7386;45.586;12.854;2022-10-28T15:58:31;18.70;99.90
14600;DHT22;7386;45.586;12.854;2022-10-28T16:01:01;18.70;99.90
14600;DHT22;7386;45.586;12.854;2022-10-28T16:03:41;18.70;99.90
14600;DHT22;7386;45.586;12.854;2022-10-28T16:06:24;18.60;99.90
14600;DHT22;7386;45.586;12.854;2022-10-28T16:09:00;18.60;99.90
14600;DHT22;7386;45.586;12.854;2022-10-28T16:11:30;18.60;99.90
14600;DHT22;7386;45.586;12.854;2022-10-28T16:14:06;18.60;99.90
14600;DHT22;7386;45.586;12.854;2022-10-28T16:16:42;18.60;99.90
14600;DHT22;7386;45.586;12.854;2022-10-28T16:19:21;18.50;99.90
14600;DHT22;7386;45.586;12.854;2022-10-28T16:21:52;18.50;99.90
14600;DHT22;7386;45.586;12.854;2022-10-28T16:24:20;18.50;99.90
14600;DHT22;7386;45.586;12.854;2022-10-28T21:47:57;16.50;99.90
14600;DHT22;7386;45.586;12.854;2022-10-28T21:50:25;16.00;99.90
14600;DHT22;7386;45.586;12.854;2022-10-28T21:52:53;16.00;99.90
14600;DHT22;7386;45.586;12.854;2022-10-28T21:55:28;16.10;99.90
14600;DHT22;7386;45.586;12.854;2022-10-28T21:58:12;15.90;99.90
14600;DHT22;7386;45.586;12.854;2022-10-28T22:00:40;16.10;99.90
14600;DHT22;7386;45.586;12.854;2022-10-28T22:03:09;16.00;99.90
14600;DHT22;7386;45.586;12.854;2022-10-28T22:05:38;16.00;99.90
14600;DHT22;7386;45.586;12.854;2022-10-28T22:08:06;16.00;99.90
14600;DHT22;7386;45.586;12.854;2022-10-28T22:10:36;15.90;99.90
14600;DHT22;7386;45.586;12.854;2022-10-28T22:13:04;16.00;99.90
14600;DHT22;7386;45.586;12.854;2022-10-28T22:15:32;15.80;99.90
14600;DHT22;7386;45.586;12.854;2022-10-28T22:18:01;15.90;99.90
14600;DHT22;7386;45.586;12.854;2022-10-28T22:20:29;15.90;99.90
14600;DHT22;7386;45.586;12.854;2022-10-28T22:22:57;15.80;99.90
14600;DHT22;7386;45.586;12.854;2022-10-28T22:25:25;15.80;99.90
14600;DHT22;7386;45.586;12.854;2022-10-28T22:27:55;15.80;99.90
14600;DHT22;7386;45.586;12.854;2022-10-28T22:30:23;15.80;99.90
14600;DHT22;7386;45.586;12.854;2022-10-28T22:32:51;15.70;99.90
14600;DHT22;7386;45.586;12.854;2022-10-28T22:35:20;15.70;99.90
14600;DHT22;7386;45.586;12.854;2022-10-28T22:37:48;15.70;99.90
14600;DHT22;7386;45.586;12.854;2022-10-28T22:40:16;15.70;99.90
14600;DHT22;7386;45.586;12.854;2022-10-28T22:42:44;15.70;99.90
14600;DHT22;7386;45.586;12.854;2022-10-28T22:45:14;15.80;99.90
14600;DHT22;7386;45.586;12.854;2022-10-28T22:47:43;15.80;99.90
14600;DHT22;7386;45.586;12.854;2022-10-28T22:50:11;15.80;99.90
14600;DHT22;7386;45.586;12.854;2022-10-28T22:52:39;15.70;99.90
14600;DHT22;7386;45.586;12.854;2022-10-28T22:55:08;15.70;99.90
14600;DHT22;7386;45.586;12.854;2022-10-28T22:57:36;15.70;99.90
14600;DHT22;7386;45.586;12.854;2022-10-28T23:00:06;15.70;99.90
14600;DHT22;7386;45.586;12.854;2022-10-28T23:02:36;15.60;99.90
14600;DHT22;7386;45.586;12.854;2022-10-28T23:05:05;15.60;99.90
14600;DHT22;7386;45.586;12.854;2022-10-28T23:07:33;15.60;99.90
14600;DHT22;7386;45.586;12.854;2022-10-28T23:10:02;15.50;99.90
14600;DHT22;7386;45.586;12.854;2022-10-28T23:12:30;15.50;99.90
14600;DHT22;7386;45.586;12.854;2022-10-28T23:14:58;15.50;99.90
14600;DHT22;7386;45.586;12.854;2022-10-28T23:17:26;15.40;99.90
14600;DHT22;7386;45.586;12.854;2022-10-28T23:19:56;15.40;99.90
14600;DHT22;7386;45.586;12.854;2022-10-28T23:22:24;15.40;99.90
14600;DHT22;7386;45.586;12.854;2022-10-28T23:24:52;15.30;99.90
14600;DHT22;7386;45.586;12.854;2022-10-28T23:27:20;15.30;99.90
14600;DHT22;7386;45.586;12.854;2022-10-28T23:29:49;15.30;99.90
14600;DHT22;7386;45.586;12.854;2022-10-28T23:32:17;15.30;99.90
14600;DHT22;7386;45.586;12.854;2022-10-28T23:34:45;15.20;99.90
14600;DHT22;7386;45.586;12.854;2022-10-28T23:37:15;15.20;99.90
14600;DHT22;7386;45.586;12.854;2022-10-28T23:39:43;15.20;99.90
14600;DHT22;7386;45.586;12.854;2022-10-28T23:42:11;15.20;99.90
14600;DHT22;7386;45.586;12.854;2022-10-28T23:44:39;15.20;99.90
14600;DHT22;7386;45.586;12.854;2022-10-28T23:47:08;15.20;99.90
14600;DHT22;7386;45.586;12.854;2022-10-28T23:49:36;15.20;99.90
14600;DHT22;7386;45.586;12.854;2022-10-28T23:52:04;15.20;99.90
14600;DHT22;7386;45.586;12.854;2022-10-28T23:54:34;15.20;99.90
14600;DHT22;7386;45.586;12.854;2022-10-28T23:57:03;15.20;99.90
14600;DHT22;7386;45.586;12.854;2022-10-28T23:59:31;15.30;99.90
